LFPO 220230Z 23014KT 9999 FEW023 BKN260 09/05 Q1016 NOSIG

ElémentsDécodage
LFPO Station météo située sur l'aérodrome de PARIS Orly
220230Z émis le 22 du mois à 02h30 UTC
23014KT vent du 230°, 14 noeuds
9999 visibilité horizontale supérieure à 10 Km
FEW023 nuages rares (1/8 à 2/8) à 2300 pieds
BKN260 nuages morcelés (5/8 à 7/8) à 26000 pieds
09/05 température 09°C, point de rosée 05°C
 soit une humidité relative de 76%
Q1016 la pression au niveau de la mer (QNH) est de 1016 hPa
NOSIG Pas de changement significatif prévu au cours des deux heures suivant l'heure de l'observation